sensor_id;sensor_type;location;lat;lon;timestamp;pressure;altitude;pressure_sealevel;temperature;humidity
49657;BME280;71194;38.900;-77.124;2023-07-20T00:00:18;100133.04;;;34.02;42.26
49657;BME280;71194;38.900;-77.124;2023-07-20T00:02:49;100135.77;;;33.68;42.86
49657;BME280;71194;38.900;-77.124;2023-07-20T00:05:17;100136.37;;;33.41;43.56
49657;BME280;71194;38.900;-77.124;2023-07-20T00:07:45;100134.78;;;32.89;45.04
49657;BME280;71194;38.900;-77.124;2023-07-20T00:10:13;100132.73;;;33.08;44.54
49657;BME280;71194;38.900;-77.124;2023-07-20T00:12:40;100129.58;;;33.48;44.34
49657;BME280;71194;38.900;-77.124;2023-07-20T00:15:09;100132.33;;;33.06;44.57
49657;BME280;71194;38.900;-77.124;2023-07-20T00:17:36;100131.31;;;32.88;44.75
49657;BME280;71194;38.900;-77.124;2023-07-20T00:20:05;100132.59;;;32.91;44.69
49657;BME280;71194;38.900;-77.124;2023-07-20T00:22:34;100133.37;;;32.99;44.57
49657;BME280;71194;38.900;-77.124;2023-07-20T00:25:01;100133.63;;;33.26;44.47
49657;BME280;71194;38.900;-77.124;2023-07-20T00:27:29;100135.35;;;33.06;44.70
49657;BME280;71194;38.900;-77.124;2023-07-20T00:29:57;100137.93;;;32.77;45.14
49657;BME280;71194;38.900;-77.124;2023-07-20T00:32:24;100141.11;;;32.88;45.45
49657;BME280;71194;38.900;-77.124;2023-07-20T00:34:52;100139.12;;;32.90;45.36
49657;BME280;71194;38.900;-77.124;2023-07-20T00:37:19;100135.73;;;32.83;45.55
49657;BME280;71194;38.900;-77.124;2023-07-20T00:39:47;100133.67;;;32.61;45.47
49657;BME280;71194;38.900;-77.124;2023-07-20T00:42:15;100135.84;;;32.50;45.66
49657;BME280;71194;38.900;-77.124;2023-07-20T00:44:42;100136.82;;;32.55;46.16
49657;BME280;71194;38.900;-77.124;2023-07-20T00:47:10;100137.47;;;32.33;46.71
49657;BME280;71194;38.900;-77.124;2023-07-20T00:49:38;100145.22;;;32.23;47.19
49657;BME280;71194;38.900;-77.124;2023-07-20T00:52:08;100156.44;;;32.17;47.48
49657;BME280;71194;38.900;-77.124;2023-07-20T00:54:37;100170.61;;;31.78;48.69
49657;BME280;71194;38.900;-77.124;2023-07-20T00:57:07;100179.79;;;31.69;48.99
49657;BME280;71194;38.900;-77.124;2023-07-20T00:59:35;100179.18;;;31.62;49.12
49657;BME280;71194;38.900;-77.124;2023-07-20T01:02:03;100185.14;;;31.87;48.65
49657;BME280;71194;38.900;-77.124;2023-07-20T01:04:31;100188.33;;;31.88;48.62
49657;BME280;71194;38.900;-77.124;2023-07-20T01:07:06;100192.18;;;31.96;48.55
49657;BME280;71194;38.900;-77.124;2023-07-20T01:09:44;100194.27;;;31.99;48.29
49657;BME280;71194;38.900;-77.124;2023-07-20T01:12:17;100193.89;;;31.80;48.72
49657;BME280;71194;38.900;-77.124;2023-07-20T01:14:48;100197.68;;;31.43;49.79
49657;BME280;71194;38.900;-77.124;2023-07-20T01:17:16;100205.05;;;31.84;49.43
49657;BME280;71194;38.900;-77.124;2023-07-20T01:19:43;100205.20;;;31.59;49.33
49657;BME280;71194;38.900;-77.124;2023-07-20T01:22:25;100204.80;;;31.40;49.69
49657;BME280;71194;38.900;-77.124;2023-07-20T01:25:11;100205.64;;;31.39;50.50
49657;BME280;71194;38.900;-77.124;2023-07-20T01:28:03;100212.59;;;31.66;50.41
49657;BME280;71194;38.900;-77.124;2023-07-20T01:30:45;100219.00;;;31.55;50.26
49657;BME280;71194;38.900;-77.124;2023-07-20T01:33:14;100216.04;;;31.45;50.54
49657;BME280;71194;38.900;-77.124;2023-07-20T01:35:43;100219.03;;;31.24;50.42
49657;BME280;71194;38.900;-77.124;2023-07-20T01:38:13;100220.50;;;31.30;50.38
49657;BME280;71194;38.900;-77.124;2023-07-20T01:40:41;100220.69;;;31.68;50.75
49657;BME280;71194;38.900;-77.124;2023-07-20T01:43:10;100223.01;;;31.43;50.89
49657;BME280;71194;38.900;-77.124;2023-07-20T01:45:39;100220.61;;;31.42;51.58
49657;BME280;71194;38.900;-77.124;2023-07-20T01:48:06;100221.93;;;30.94;52.41
49657;BME280;71194;38.900;-77.124;2023-07-20T01:50:33;100221.16;;;30.78;52.91
49657;BME280;71194;38.900;-77.124;2023-07-20T01:53:01;100220.56;;;31.30;52.08
49657;BME280;71194;38.900;-77.124;2023-07-20T01:55:29;100222.01;;;31.26;52.21
49657;BME280;71194;38.900;-77.124;2023-07-20T01:57:57;100223.67;;;31.30;52.07
49657;BME280;71194;38.900;-77.124;2023-07-20T02:00:25;100229.73;;;31.33;51.98
49657;BME280;71194;38.900;-77.124;2023-07-20T02:02:52;100229.38;;;31.29;52.10
49657;BME280;71194;38.900;-77.124;2023-07-20T02:05:20;100227.88;;;31.18;51.85
49657;BME280;71194;38.900;-77.124;2023-07-20T02:07:48;100232.76;;;31.21;51.72
49657;BME280;71194;38.900;-77.124;2023-07-20T02:10:15;100232.78;;;31.30;51.83
49657;BME280;71194;38.900;-77.124;2023-07-20T02:12:43;100229.09;;;30.95;51.50
49657;BME280;71194;38.900;-77.124;2023-07-20T02:15:11;100228.87;;;31.26;51.28
49657;BME280;71194;38.900;-77.124;2023-07-20T02:17:40;100227.22;;;31.28;51.13
49657;BME280;71194;38.900;-77.124;2023-07-20T02:20:08;100228.59;;;31.47;51.21
49657;BME280;71194;38.900;-77.124;2023-07-20T02:22:37;100237.74;;;31.10;51.48
49657;BME280;71194;38.900;-77.124;2023-07-20T02:25:05;100242.04;;;31.25;51.53
49657;BME280;71194;38.900;-77.124;2023-07-20T02:27:33;100240.75;;;31.08;51.98
49657;BME280;71194;38.900;-77.124;2023-07-20T02:30:01;100242.80;;;30.52;51.86
49657;BME280;71194;38.900;-77.124;2023-07-20T02:32:30;100243.05;;;30.88;52.06
49657;BME280;71194;38.900;-77.124;2023-07-20T02:34:58;100244.25;;;30.83;52.22
49657;BME280;71194;38.900;-77.124;2023-07-20T02:37:25;100247.51;;;30.67;52.58
49657;BME280;71194;38.900;-77.124;2023-07-20T02:39:54;100249.56;;;30.64;52.44
49657;BME280;71194;38.900;-77.124;2023-07-20T02:42:21;100244.88;;;30.62;52.40
49657;BME280;71194;38.900;-77.124;2023-07-20T02:44:49;100243.81;;;30.70;52.15
49657;BME280;71194;38.900;-77.124;2023-07-20T02:47:17;100238.91;;;30.72;51.99
49657;BME280;71194;38.900;-77.124;2023-07-20T02:49:45;100239.26;;;30.53;51.83
49657;BME280;71194;38.900;-77.124;2023-07-20T02:52:12;100242.45;;;30.69;51.96
49657;BME280;71194;38.900;-77.124;2023-07-20T02:54:40;100245.46;;;30.86;51.97
49657;BME280;71194;38.900;-77.124;2023-07-20T02:57:08;100247.79;;;30.47;52.20
49657;BME280;71194;38.900;-77.124;2023-07-20T02:59:35;100250.20;;;30.47;52.16
49657;BME280;71194;38.900;-77.124;2023-07-20T03:02:03;100248.65;;;30.19;52.28
49657;BME280;71194;38.900;-77.124;2023-07-20T03:04:31;100246.99;;;30.47;52.25
49657;BME280;71194;38.900;-77.124;2023-07-20T03:06:59;100250.03;;;30.39;52.29
49657;BME280;71194;38.900;-77.124;2023-07-20T03:09:26;100256.16;;;30.36;52.35
49657;BME280;71194;38.900;-77.124;2023-07-20T03:11:54;100258.86;;;30.47;52.62
49657;BME280;71194;38.900;-77.124;2023-07-20T03:14:22;100263.68;;;30.24;52.66
49657;BME280;71194;38.900;-77.124;2023-07-20T03:16:49;100260.84;;;30.23;53.17
49657;BME280;71194;38.900;-77.124;2023-07-20T03:19:17;100262.36;;;30.32;52.82
49657;BME280;71194;38.900;-77.124;2023-07-20T03:21:44;100259.84;;;30.15;52.85
49657;BME280;71194;38.900;-77.124;2023-07-20T03:24:12;100260.28;;;30.23;52.71
49657;BME280;71194;38.900;-77.124;2023-07-20T03:26:40;100259.20;;;30.49;52.63
49657;BME280;71194;38.900;-77.124;2023-07-20T03:29:08;100261.71;;;30.27;52.68
49657;BME280;71194;38.900;-77.124;2023-07-20T03:31:36;100263.89;;;30.24;52.67
49657;BME280;71194;38.900;-77.124;2023-07-20T03:34:04;100261.62;;;30.60;52.88
49657;BME280;71194;38.900;-77.124;2023-07-20T03:36:31;100260.74;;;30.37;52.82
49657;BME280;71194;38.900;-77.124;2023-07-20T03:38:59;100259.03;;;30.37;52.81
49657;BME280;71194;38.900;-77.124;2023-07-20T03:41:27;100256.49;;;30.10;53.47
49657;BME280;71194;38.900;-77.124;2023-07-20T03:43:55;100256.23;;;30.02;53.74
49657;BME280;71194;38.900;-77.124;2023-07-20T03:46:23;100263.87;;;29.92;54.17
49657;BME280;71194;38.900;-77.124;2023-07-20T03:48:50;100262.59;;;30.05;54.56
49657;BME280;71194;38.900;-77.124;2023-07-20T03:51:18;100261.90;;;29.99;54.27
49657;BME280;71194;38.900;-77.124;2023-07-20T03:53:46;100263.34;;;29.97;54.29
49657;BME280;71194;38.900;-77.124;2023-07-20T03:56:13;100266.70;;;30.06;54.17
49657;BME280;71194;38.900;-77.124;2023-07-20T03:58:41;100270.24;;;30.34;54.11
49657;BME280;71194;38.900;-77.124;2023-07-20T04:01:08;100275.19;;;30.12;54.01
49657;BME280;71194;38.900;-77.124;2023-07-20T04:03:36;100276.33;;;30.00;54.64
49657;BME280;71194;38.900;-77.124;2023-07-20T04:06:04;100274.32;;;30.12;55.07
49657;BME280;71194;38.900;-77.124;2023-07-20T04:08:31;100272.22;;;29.78;55.35
49657;BME280;71194;38.900;-77.124;2023-07-20T04:11:01;100271.66;;;29.81;55.23
49657;BME280;71194;38.900;-77.124;2023-07-20T04:13:30;100270.79;;;30.02;55.64
49657;BME280;71194;38.900;-77.124;2023-07-20T04:15:57;100267.54;;;29.74;55.46
49657;BME280;71194;38.900;-77.124;2023-07-20T04:18:25;100265.99;;;29.90;55.19
49657;BME280;71194;38.900;-77.124;2023-07-20T04:20:53;100265.24;;;29.81;54.83
49657;BME280;71194;38.900;-77.124;2023-07-20T04:23:21;100262.09;;;29.96;55.14
49657;BME280;71194;38.900;-77.124;2023-07-20T04:25:48;100259.98;;;29.87;55.11
49657;BME280;71194;38.900;-77.124;2023-07-20T04:28:16;100262.34;;;29.74;54.97
49657;BME280;71194;38.900;-77.124;2023-07-20T04:30:43;100264.71;;;30.15;55.20
49657;BME280;71194;38.900;-77.124;2023-07-20T04:33:11;100261.66;;;30.06;55.65
49657;BME280;71194;38.900;-77.124;2023-07-20T04:35:49;100255.59;;;29.72;55.56
49657;BME280;71194;38.900;-77.124;2023-07-20T04:38:18;100252.58;;;29.91;55.86
49657;BME280;71194;38.900;-77.124;2023-07-20T04:40:46;100252.09;;;29.75;55.70
49657;BME280;71194;38.900;-77.124;2023-07-20T04:43:15;100250.37;;;29.66;55.83
49657;BME280;71194;38.900;-77.124;2023-07-20T04:45:43;100248.55;;;29.99;55.69
49657;BME280;71194;38.900;-77.124;2023-07-20T04:48:13;100251.26;;;29.56;55.54
49657;BME280;71194;38.900;-77.124;2023-07-20T04:50:41;100249.25;;;29.70;55.90
49657;BME280;71194;38.900;-77.124;2023-07-20T04:53:10;100253.89;;;30.03;55.72
49657;BME280;71194;38.900;-77.124;2023-07-20T04:55:38;100258.22;;;29.89;55.87
49657;BME280;71194;38.900;-77.124;2023-07-20T04:58:07;100257.79;;;29.85;55.83
49657;BME280;71194;38.900;-77.124;2023-07-20T05:00:35;100260.13;;;29.69;56.03
49657;BME280;71194;38.900;-77.124;2023-07-20T05:03:03;100259.27;;;29.57;56.27
49657;BME280;71194;38.900;-77.124;2023-07-20T05:05:31;100253.12;;;29.35;56.72
49657;BME280;71194;38.900;-77.124;2023-07-20T05:07:58;100248.23;;;29.30;56.93
49657;BME280;71194;38.900;-77.124;2023-07-20T05:10:26;100246.04;;;29.43;57.06
49657;BME280;71194;38.900;-77.124;2023-07-20T05:12:53;100249.90;;;29.07;56.67
49657;BME280;71194;38.900;-77.124;2023-07-20T05:15:21;100249.39;;;29.32;56.51
49657;BME280;71194;38.900;-77.124;2023-07-20T05:17:49;100253.22;;;29.23;56.62
49657;BME280;71194;38.900;-77.124;2023-07-20T05:20:17;100253.25;;;29.13;56.60
49657;BME280;71194;38.900;-77.124;2023-07-20T05:22:45;100251.40;;;29.14;56.45
49657;BME280;71194;38.900;-77.124;2023-07-20T05:25:13;100247.55;;;29.83;55.14
49657;BME280;71194;38.900;-77.124;2023-07-20T05:27:41;100248.93;;;30.06;53.58
49657;BME280;71194;38.900;-77.124;2023-07-20T05:30:09;100250.82;;;29.03;55.97
49657;BME280;71194;38.900;-77.124;2023-07-20T05:32:37;100253.56;;;29.15;55.73
49657;BME280;71194;38.900;-77.124;2023-07-20T05:35:06;100256.27;;;29.14;55.61
49657;BME280;71194;38.900;-77.124;2023-07-20T05:37:34;100264.12;;;28.92;55.83
49657;BME280;71194;38.900;-77.124;2023-07-20T05:40:02;100266.08;;;28.84;55.74
49657;BME280;71194;38.900;-77.124;2023-07-20T05:42:29;100267.00;;;28.85;55.63
49657;BME280;71194;38.900;-77.124;2023-07-20T05:44:57;100266.89;;;28.99;54.96
49657;BME280;71194;38.900;-77.124;2023-07-20T05:47:25;100263.23;;;29.51;54.44
49657;BME280;71194;38.900;-77.124;2023-07-20T05:49:53;100260.62;;;29.10;53.98
49657;BME280;71194;38.900;-77.124;2023-07-20T05:52:20;100257.03;;;29.03;53.49
49657;BME280;71194;38.900;-77.124;2023-07-20T05:54:49;100256.15;;;28.88;53.22
49657;BME280;71194;38.900;-77.124;2023-07-20T05:57:16;100250.94;;;28.92;52.64
49657;BME280;71194;38.900;-77.124;2023-07-20T05:59:45;100249.78;;;29.00;52.00
49657;BME280;71194;38.900;-77.124;2023-07-20T06:02:12;100245.25;;;29.07;51.49
49657;BME280;71194;38.900;-77.124;2023-07-20T06:04:40;100245.17;;;28.97;51.06
49657;BME280;71194;38.900;-77.124;2023-07-20T06:07:08;100247.69;;;29.17;50.65
49657;BME280;71194;38.900;-77.124;2023-07-20T06:09:36;100244.45;;;29.33;50.30
49657;BME280;71194;38.900;-77.124;2023-07-20T06:12:04;100249.76;;;29.17;50.16
49657;BME280;71194;38.900;-77.124;2023-07-20T06:14:31;100240.15;;;28.81;50.14
49657;BME280;71194;38.900;-77.124;2023-07-20T06:16:59;100236.59;;;28.90;50.21
49657;BME280;71194;38.900;-77.124;2023-07-20T06:19:27;100231.09;;;28.33;50.24
49657;BME280;71194;38.900;-77.124;2023-07-20T06:21:54;100227.22;;;28.55;50.34
49657;BME280;71194;38.900;-77.124;2023-07-20T06:24:23;100229.10;;;28.83;50.08
49657;BME280;71194;38.900;-77.124;2023-07-20T06:26:50;100228.41;;;28.39;50.11
49657;BME280;71194;38.900;-77.124;2023-07-20T06:29:18;100227.36;;;28.39;50.09
49657;BME280;71194;38.900;-77.124;2023-07-20T06:31:46;100222.28;;;28.62;49.97
49657;BME280;71194;38.900;-77.124;2023-07-20T06:34:14;100220.50;;;28.76;49.89
49657;BME280;71194;38.900;-77.124;2023-07-20T06:36:42;100217.22;;;28.69;49.86
49657;BME280;71194;38.900;-77.124;2023-07-20T06:39:10;100218.93;;;28.56;50.03
49657;BME280;71194;38.900;-77.124;2023-07-20T06:41:38;100216.09;;;28.65;49.69
49657;BME280;71194;38.900;-77.124;2023-07-20T06:44:05;100230.14;;;27.89;50.80
49657;BME280;71194;38.900;-77.124;2023-07-20T06:46:34;100236.14;;;27.76;51.60
49657;BME280;71194;38.900;-77.124;2023-07-20T06:49:01;100233.13;;;27.70;51.95
49657;BME280;71194;38.900;-77.124;2023-07-20T06:51:29;100233.05;;;27.66;52.86
49657;BME280;71194;38.900;-77.124;2023-07-20T06:53:57;100233.79;;;27.46;53.26
49657;BME280;71194;38.900;-77.124;2023-07-20T06:56:24;100226.42;;;27.39;53.02
49657;BME280;71194;38.900;-77.124;2023-07-20T06:58:52;100223.88;;;27.49;52.79
49657;BME280;71194;38.900;-77.124;2023-07-20T07:01:19;100220.98;;;27.60;52.30
49657;BME280;71194;38.900;-77.124;2023-07-20T07:03:47;100222.61;;;27.93;51.96
49657;BME280;71194;38.900;-77.124;2023-07-20T07:06:15;100222.55;;;27.90;51.97
49657;BME280;71194;38.900;-77.124;2023-07-20T07:08:43;100221.84;;;27.83;52.28
49657;BME280;71194;38.900;-77.124;2023-07-20T07:11:10;100218.86;;;28.07;51.71
49657;BME280;71194;38.900;-77.124;2023-07-20T07:13:38;100213.85;;;28.08;51.53
49657;BME280;71194;38.900;-77.124;2023-07-20T07:16:06;100214.26;;;27.91;51.82
49657;BME280;71194;38.900;-77.124;2023-07-20T07:18:34;100204.85;;;28.16;51.78
49657;BME280;71194;38.900;-77.124;2023-07-20T07:21:01;100204.36;;;28.10;51.76
49657;BME280;71194;38.900;-77.124;2023-07-20T07:23:29;100202.61;;;28.00;51.89
49657;BME280;71194;38.900;-77.124;2023-07-20T07:25:57;100202.45;;;28.09;52.14
49657;BME280;71194;38.900;-77.124;2023-07-20T07:28:24;100202.08;;;28.09;52.28
49657;BME280;71194;38.900;-77.124;2023-07-20T07:30:52;100204.09;;;27.89;52.46
49657;BME280;71194;38.900;-77.124;2023-07-20T07:33:22;100206.30;;;27.97;52.54
49657;BME280;71194;38.900;-77.124;2023-07-20T07:35:50;100204.40;;;27.92;52.79
49657;BME280;71194;38.900;-77.124;2023-07-20T07:38:18;100205.48;;;27.68;52.71
49657;BME280;71194;38.900;-77.124;2023-07-20T07:40:47;100205.81;;;27.92;52.65
49657;BME280;71194;38.900;-77.124;2023-07-20T07:43:15;100203.16;;;27.76;52.74
49657;BME280;71194;38.900;-77.124;2023-07-20T07:45:43;100199.89;;;27.54;53.12
49657;BME280;71194;38.900;-77.124;2023-07-20T07:48:11;100197.80;;;27.40;53.30
49657;BME280;71194;38.900;-77.124;2023-07-20T07:50:39;100197.92;;;27.47;53.56
49657;BME280;71194;38.900;-77.124;2023-07-20T07:53:07;100197.20;;;27.40;53.62
49657;BME280;71194;38.900;-77.124;2023-07-20T07:55:36;100195.42;;;27.09;53.92
49657;BME280;71194;38.900;-77.124;2023-07-20T07:58:03;100190.09;;;27.40;53.82
49657;BME280;71194;38.900;-77.124;2023-07-20T08:00:31;100184.67;;;27.01;54.75
49657;BME280;71194;38.900;-77.124;2023-07-20T08:02:59;100185.39;;;26.56;55.92
49657;BME280;71194;38.900;-77.124;2023-07-20T08:05:27;100186.01;;;26.18;56.83
49657;BME280;71194;38.900;-77.124;2023-07-20T08:07:54;100192.72;;;26.14;57.02
49657;BME280;71194;38.900;-77.124;2023-07-20T08:10:22;100192.48;;;26.42;57.59
49657;BME280;71194;38.900;-77.124;2023-07-20T08:12:51;100191.56;;;26.42;57.69
49657;BME280;71194;38.900;-77.124;2023-07-20T08:15:18;100191.27;;;26.51;57.01
49657;BME280;71194;38.900;-77.124;2023-07-20T08:17:46;100195.08;;;26.59;56.14
49657;BME280;71194;38.900;-77.124;2023-07-20T08:20:14;100201.80;;;26.90;55.36
49657;BME280;71194;38.900;-77.124;2023-07-20T08:22:41;100205.71;;;27.15;55.31
49657;BME280;71194;38.900;-77.124;2023-07-20T08:25:09;100203.07;;;27.19;55.20
49657;BME280;71194;38.900;-77.124;2023-07-20T08:27:37;100194.64;;;26.98;55.08
49657;BME280;71194;38.900;-77.124;2023-07-20T08:30:06;100193.49;;;26.94;55.13
49657;BME280;71194;38.900;-77.124;2023-07-20T08:32:34;100190.97;;;26.95;55.12
49657;BME280;71194;38.900;-77.124;2023-07-20T08:35:02;100192.78;;;26.99;55.02
49657;BME280;71194;38.900;-77.124;2023-07-20T08:37:30;100196.02;;;27.02;55.01
49657;BME280;71194;38.900;-77.124;2023-07-20T08:39:57;100197.41;;;27.07;54.89
49657;BME280;71194;38.900;-77.124;2023-07-20T08:42:26;100200.28;;;27.05;54.88
49657;BME280;71194;38.900;-77.124;2023-07-20T08:44:55;100197.97;;;27.04;54.84
49657;BME280;71194;38.900;-77.124;2023-07-20T08:47:25;100193.53;;;26.96;54.99
49657;BME280;71194;38.900;-77.124;2023-07-20T08:49:54;100192.79;;;26.95;54.98
49657;BME280;71194;38.900;-77.124;2023-07-20T08:52:23;100192.24;;;26.83;55.40
49657;BME280;71194;38.900;-77.124;2023-07-20T08:54:52;100198.16;;;26.88;55.58
49657;BME280;71194;38.900;-77.124;2023-07-20T08:57:21;100192.75;;;26.75;55.83
49657;BME280;71194;38.900;-77.124;2023-07-20T08:59:50;100192.33;;;26.71;55.95
49657;BME280;71194;38.900;-77.124;2023-07-20T09:02:21;100192.24;;;26.67;56.22
49657;BME280;71194;38.900;-77.124;2023-07-20T09:04:51;100193.87;;;26.84;56.01
49657;BME280;71194;38.900;-77.124;2023-07-20T09:07:19;100194.24;;;26.55;56.09
49657;BME280;71194;38.900;-77.124;2023-07-20T09:09:47;100200.01;;;26.76;56.20
49657;BME280;71194;38.900;-77.124;2023-07-20T09:12:15;100199.86;;;26.42;57.13
49657;BME280;71194;38.900;-77.124;2023-07-20T09:14:44;100208.02;;;26.61;57.48
49657;BME280;71194;38.900;-77.124;2023-07-20T09:17:14;100204.42;;;26.36;57.51
49657;BME280;71194;38.900;-77.124;2023-07-20T09:19:46;100204.37;;;26.24;57.96
49657;BME280;71194;38.900;-77.124;2023-07-20T09:22:14;100205.01;;;26.28;57.83
49657;BME280;71194;38.900;-77.124;2023-07-20T09:24:42;100207.70;;;26.64;57.70
49657;BME280;71194;38.900;-77.124;2023-07-20T09:27:10;100207.78;;;26.54;57.36
49657;BME280;71194;38.900;-77.124;2023-07-20T09:29:48;100207.19;;;26.89;57.04
49657;BME280;71194;38.900;-77.124;2023-07-20T09:32:19;100207.67;;;26.62;57.01
49657;BME280;71194;38.900;-77.124;2023-07-20T09:34:48;100212.03;;;26.63;57.75
49657;BME280;71194;38.900;-77.124;2023-07-20T09:37:20;100215.22;;;26.60;57.81
49657;BME280;71194;38.900;-77.124;2023-07-20T09:39:48;100225.35;;;26.45;57.54
49657;BME280;71194;38.900;-77.124;2023-07-20T09:42:21;100230.98;;;26.46;57.53
49657;BME280;71194;38.900;-77.124;2023-07-20T09:44:49;100230.57;;;26.64;57.74
49657;BME280;71194;38.900;-77.124;2023-07-20T09:47:22;100232.74;;;26.59;57.81
49657;BME280;71194;38.900;-77.124;2023-07-20T09:49:58;100237.49;;;26.53;58.03
49657;BME280;71194;38.900;-77.124;2023-07-20T09:52:26;100241.60;;;26.27;57.93
49657;BME280;71194;38.900;-77.124;2023-07-20T09:54:55;100239.99;;;26.14;58.33
49657;BME280;71194;38.900;-77.124;2023-07-20T09:57:23;100242.95;;;26.07;58.54
49657;BME280;71194;38.900;-77.124;2023-07-20T09:59:53;100245.72;;;26.62;58.38
49657;BME280;71194;38.900;-77.124;2023-07-20T10:02:24;100247.57;;;26.38;58.36
49657;BME280;71194;38.900;-77.124;2023-07-20T10:04:54;100247.59;;;26.22;58.16
49657;BME280;71194;38.900;-77.124;2023-07-20T10:07:22;100251.74;;;26.68;57.65
49657;BME280;71194;38.900;-77.124;2023-07-20T10:09:56;100262.11;;;26.83;57.35
49657;BME280;71194;38.900;-77.124;2023-07-20T10:12:24;100269.35;;;26.24;57.46
49657;BME280;71194;38.900;-77.124;2023-07-20T10:14:57;100273.27;;;26.47;57.48
49657;BME280;71194;38.900;-77.124;2023-07-20T10:17:27;100279.77;;;26.22;58.15
49657;BME280;71194;38.900;-77.124;2023-07-20T10:19:57;100282.27;;;26.52;58.70
49657;BME280;71194;38.900;-77.124;2023-07-20T10:22:33;100284.18;;;26.15;59.62
49657;BME280;71194;38.900;-77.124;2023-07-20T10:25:03;100283.77;;;25.98;60.09
49657;BME280;71194;38.900;-77.124;2023-07-20T10:27:31;100285.00;;;25.80;60.53
49657;BME280;71194;38.900;-77.124;2023-07-20T10:29:59;100279.99;;;25.79;60.64
49657;BME280;71194;38.900;-77.124;2023-07-20T10:32:28;100275.35;;;25.94;60.90
49657;BME280;71194;38.900;-77.124;2023-07-20T10:34:56;100271.92;;;25.94;60.87
49657;BME280;71194;38.900;-77.124;2023-07-20T10:38:00;100276.59;;;25.61;61.31
49657;BME280;71194;38.900;-77.124;2023-07-20T10:40:31;100277.89;;;25.88;60.84
49657;BME280;71194;38.900;-77.124;2023-07-20T10:43:00;100283.71;;;26.28;60.33
49657;BME280;71194;38.900;-77.124;2023-07-20T10:45:49;100293.23;;;26.25;59.76
49657;BME280;71194;38.900;-77.124;2023-07-20T10:48:19;100291.25;;;26.02;60.27
49657;BME280;71194;38.900;-77.124;2023-07-20T10:51:09;100288.03;;;26.22;60.47
49657;BME280;71194;38.900;-77.124;2023-07-20T10:53:37;100290.44;;;25.83;61.24
49657;BME280;71194;38.900;-77.124;2023-07-20T10:56:11;100296.61;;;25.75;61.70
49657;BME280;71194;38.900;-77.124;2023-07-20T10:58:40;100297.52;;;25.90;61.28
49657;BME280;71194;38.900;-77.124;2023-07-20T11:01:09;100301.56;;;25.49;62.62
49657;BME280;71194;38.900;-77.124;2023-07-20T11:03:40;100303.08;;;25.80;62.04
49657;BME280;71194;38.900;-77.124;2023-07-20T11:06:44;100303.83;;;25.67;62.33
49657;BME280;71194;38.900;-77.124;2023-07-20T11:09:13;100309.61;;;26.07;61.67
49657;BME280;71194;38.900;-77.124;2023-07-20T11:11:42;100317.88;;;26.64;60.65
49657;BME280;71194;38.900;-77.124;2023-07-20T11:14:14;100316.75;;;26.98;58.93
49657;BME280;71194;38.900;-77.124;2023-07-20T11:16:49;100317.33;;;26.41;59.65
49657;BME280;71194;38.900;-77.124;2023-07-20T11:19:19;100314.87;;;26.67;59.96
49657;BME280;71194;38.900;-77.124;2023-07-20T11:21:50;100317.60;;;26.89;59.66
49657;BME280;71194;38.900;-77.124;2023-07-20T11:24:19;100315.86;;;26.96;59.34
49657;BME280;71194;38.900;-77.124;2023-07-20T11:26:48;100315.27;;;27.09;57.76
49657;BME280;71194;38.900;-77.124;2023-07-20T11:29:18;100311.13;;;27.48;57.54
49657;BME280;71194;38.900;-77.124;2023-07-20T11:31:47;100303.21;;;27.50;57.33
49657;BME280;71194;38.900;-77.124;2023-07-20T11:34:16;100304.63;;;26.81;57.42
49657;BME280;71194;38.900;-77.124;2023-07-20T11:36:46;100304.77;;;27.32;57.29
49657;BME280;71194;38.900;-77.124;2023-07-20T11:39:15;100312.37;;;27.40;56.70
49657;BME280;71194;38.900;-77.124;2023-07-20T11:41:46;100318.03;;;27.25;57.29
49657;BME280;71194;38.900;-77.124;2023-07-20T11:44:14;100316.74;;;27.77;56.60
49657;BME280;71194;38.900;-77.124;2023-07-20T11:46:43;100319.53;;;27.84;56.27
49657;BME280;71194;38.900;-77.124;2023-07-20T11:49:11;100318.43;;;27.91;55.92
49657;BME280;71194;38.900;-77.124;2023-07-20T11:51:40;100316.85;;;28.50;54.11
49657;BME280;71194;38.900;-77.124;2023-07-20T11:54:09;100316.58;;;28.32;53.67
49657;BME280;71194;38.900;-77.124;2023-07-20T11:56:41;100319.65;;;27.84;54.57
49657;BME280;71194;38.900;-77.124;2023-07-20T11:59:09;100320.94;;;28.14;54.08
49657;BME280;71194;38.900;-77.124;2023-07-20T12:01:37;100325.00;;;28.47;53.47
49657;BME280;71194;38.900;-77.124;2023-07-20T12:04:05;100329.70;;;28.34;53.51
49657;BME280;71194;38.900;-77.124;2023-07-20T12:06:33;100328.45;;;28.62;53.47
49657;BME280;71194;38.900;-77.124;2023-07-20T12:09:01;100331.43;;;28.37;54.08
49657;BME280;71194;38.900;-77.124;2023-07-20T12:11:33;100333.95;;;27.82;54.80
49657;BME280;71194;38.900;-77.124;2023-07-20T12:14:02;100335.85;;;27.84;53.23
49657;BME280;71194;38.900;-77.124;2023-07-20T12:16:30;100338.05;;;28.48;52.68
49657;BME280;71194;38.900;-77.124;2023-07-20T12:19:02;100332.96;;;29.04;51.94
49657;BME280;71194;38.900;-77.124;2023-07-20T12:21:31;100332.08;;;29.11;51.56
49657;BME280;71194;38.900;-77.124;2023-07-20T12:23:59;100330.18;;;29.22;51.22
49657;BME280;71194;38.900;-77.124;2023-07-20T12:26:29;100328.32;;;29.19;51.74
49657;BME280;71194;38.900;-77.124;2023-07-20T12:28:58;100326.40;;;29.16;50.84
49657;BME280;71194;38.900;-77.124;2023-07-20T12:31:27;100328.33;;;29.20;50.79
49657;BME280;71194;38.900;-77.124;2023-07-20T12:33:56;100327.81;;;29.27;51.03
49657;BME280;71194;38.900;-77.124;2023-07-20T12:36:24;100326.29;;;29.76;50.00
49657;BME280;71194;38.900;-77.124;2023-07-20T12:38:52;100327.57;;;29.50;50.58